Time;durP1;ratioP1;P1;durP2;ratioP2;P2;SDS_P1;SDS_P2;PMS_P1;PMS_P2;Temp;Humidity;BMP_temperature;BMP_pressure;BME280_temperature;BME280_humidity;BME280_pressure;Samples;Min_cycle;Max_cycle;Signal;HPM_P1;HPM_P2
2022/01/25 00:24:23;;;;;;;70.65;55.47;;;22.00;99.90;;;;;;4209888;28;20105;-69
2022/01/25 00:26:40;;;;;;;71.03;54.33;;;22.10;99.90;;;;;;4209729;28;20070;-69
2022/01/25 00:29:04;;;;;;;72.47;54.42;;;22.10;99.90;;;;;;4209811;28;21692;-68
2022/01/25 00:31:13;;;;;;;;;;;22.10;99.90;;;;;;4211064;28;20044;-69
2022/01/25 00:33:17;;;;;;;100.38;64.57;;;22.10;99.90;;;;;;4192759;28;20453;-68
2022/01/25 00:35:22;;;;;;;82.45;53.03;;;22.10;99.90;;;;;;4213070;28;20048;-69
2022/01/25 00:37:26;;;;;;;92.40;59.97;;;21.90;99.90;;;;;;4211228;28;20084;-69
2022/01/25 00:39:31;;;;;;;86.72;58.25;;;22.00;99.90;;;;;;4211179;28;20044;-68
2022/01/25 00:41:35;;;;;;;86.38;59.17;;;22.10;99.90;;;;;;4210912;28;20413;-67
2022/01/25 00:43:39;;;;;;;96.13;64.68;;;22.20;99.90;;;;;;4210513;28;20047;-67
2022/01/25 00:45:44;;;;;;;97.68;62.63;;;22.20;99.90;;;;;;4192657;28;20094;-70
2022/01/25 00:47:51;;;;;;;78.55;56.92;;;22.10;99.90;;;;;;4210623;28;20052;-71
2022/01/25 00:49:56;;;;;;;90.30;59.90;;;22.00;99.90;;;;;;4210821;28;20037;-70
2022/01/25 00:52:16;;;;;;;74.60;52.17;;;21.90;99.90;;;;;;4210203;28;20048;-69
2022/01/25 00:54:30;;;;;;;73.00;51.85;;;21.90;99.90;;;;;;4210157;28;20059;-69
2022/01/25 00:56:36;;;;;;;81.88;53.45;;;22.00;99.90;;;;;;4196642;28;20468;-69
2022/01/25 00:58:41;;;;;;;75.82;53.88;;;22.00;99.90;;;;;;4209807;28;20114;-70
2022/01/25 01:00:46;;;;;;;82.97;56.20;;;22.00;99.90;;;;;;4210922;28;20654;-70
2022/01/25 01:02:50;;;;;;;72.85;50.55;;;22.00;99.90;;;;;;4211121;28;20036;-69
2022/01/25 01:04:55;;;;;;;93.28;56.42;;;22.10;99.90;;;;;;4209851;28;20527;-70
2022/01/25 01:07:03;;;;;;;83.43;54.85;;;22.10;99.90;;;;;;4190493;28;20076;-70
2022/01/25 01:09:09;;;;;;;73.15;52.03;;;22.30;99.90;;;;;;4191746;28;20049;-69
2022/01/25 01:11:18;;;;;;;78.85;55.13;;;22.40;99.90;;;;;;4195021;28;20047;-66
2022/01/25 01:15:59;;;;;;;89.38;64.47;;;22.50;99.90;;;;;;4211665;28;20044;-69
2022/01/25 01:29:50;;;;;;;105.10;71.93;;;22.70;99.90;;;;;;4209709;28;20044;-70
2022/01/25 01:34:28;;;;;;;92.03;60.92;;;22.70;99.90;;;;;;4192552;28;19928;-70
2022/01/25 01:41:30;;;;;;;;;;;22.90;99.90;;;;;;4210962;28;20676;-69
2022/01/25 01:45:42;;;;;;;67.45;49.17;;;23.10;99.90;;;;;;4211455;28;20082;-70
2022/01/25 01:47:50;;;;;;;70.03;48.50;;;23.20;99.90;;;;;;4209609;28;20059;-69
2022/01/25 01:49:56;;;;;;;70.40;49.72;;;23.30;99.90;;;;;;4211177;28;20040;-69
2022/01/25 01:52:00;;;;;;;73.53;49.78;;;23.30;99.90;;;;;;4210657;28;20068;-68
2022/01/25 01:54:09;;;;;;;78.05;49.40;;;23.40;99.90;;;;;;4209945;28;20044;-69
2022/01/25 01:56:14;;;;;;;68.93;46.70;;;23.40;99.80;;;;;;4209853;28;20055;-69
2022/01/25 01:58:19;;;;;;;71.05;45.92;;;23.50;99.20;;;;;;4209717;28;20463;-69
2022/01/25 02:00:37;;;;;;;78.07;50.95;;;23.60;98.60;;;;;;4191985;28;20045;-69
2022/01/25 02:02:41;;;;;;;66.22;46.63;;;23.70;98.70;;;;;;4211010;28;20419;-69
2022/01/25 02:04:46;;;;;;;62.70;43.13;;;23.80;98.50;;;;;;4210993;28;20052;-68
2022/01/25 02:06:50;;;;;;;64.50;40.85;;;23.80;98.30;;;;;;4209761;28;20040;-69
2022/01/25 02:08:55;;;;;;;56.00;39.78;;;23.90;97.80;;;;;;4212924;28;20620;-69
2022/01/25 02:11:03;;;;;;;57.92;40.45;;;24.10;97.40;;;;;;4208783;28;20453;-69
2022/01/25 02:13:09;;;;;;;54.38;38.38;;;24.10;97.60;;;;;;4209941;28;20048;-68
2022/01/25 02:15:14;;;;;;;53.10;36.55;;;24.10;96.80;;;;;;4209636;28;20036;-68
2022/01/25 02:24:11;;;;;;;42.70;31.40;;;24.40;94.40;;;;;;4209508;28;20052;-68
2022/01/25 02:26:15;;;;;;;47.45;34.53;;;24.50;94.70;;;;;;4210061;28;20410;-68
2022/01/25 02:28:20;;;;;;;46.75;32.70;;;24.60;94.80;;;;;;4209151;28;20062;-68
2022/01/25 02:30:24;;;;;;;43.15;32.45;;;24.60;94.60;;;;;;4209197;28;20059;-68
2022/01/25 02:32:29;;;;;;;59.30;39.40;;;24.50;94.80;;;;;;4193002;28;20051;-68
2022/01/25 02:34:33;;;;;;;55.42;37.28;;;24.60;94.60;;;;;;4209765;28;20055;-68
2022/01/25 02:36:37;;;;;;;51.35;34.80;;;24.60;94.70;;;;;;4193178;28;20048;-68
2022/01/25 02:38:42;;;;;;;45.15;33.00;;;24.70;94.40;;;;;;4208835;28;20737;-69
2022/01/25 02:40:46;;;;;;;50.58;32.97;;;24.70;94.20;;;;;;4213029;28;20081;-69
2022/01/25 02:42:52;;;;;;;52.63;34.30;;;24.70;94.30;;;;;;4211324;28;20059;-70
2022/01/25 02:44:56;;;;;;;51.67;34.03;;;24.90;94.60;;;;;;4209809;28;20064;-69
2022/01/25 02:49:08;;;;;;;42.45;31.45;;;24.90;94.40;;;;;;4212759;28;20119;-69
2022/01/25 02:51:13;;;;;;;45.58;32.38;;;24.90;94.40;;;;;;4192677;28;20203;-69
2022/01/25 02:53:17;;;;;;;43.20;30.20;;;25.00;94.30;;;;;;4209878;28;20048;-67
2022/01/25 02:55:22;;;;;;;40.85;31.35;;;25.10;93.90;;;;;;4209974;28;20048;-68
2022/01/25 02:57:26;;;;;;;45.50;31.40;;;25.30;93.90;;;;;;4194122;28;20513;-68
2022/01/25 02:59:31;;;;;;;46.78;34.47;;;25.30;93.70;;;;;;4192485;28;20032;-69
2022/01/25 03:01:36;;;;;;;47.72;33.53;;;25.40;93.70;;;;;;4192383;28;20112;-69
2022/01/25 03:03:42;;;;;;;40.28;29.58;;;25.30;93.60;;;;;;4210550;28;20040;-67
2022/01/25 03:05:46;;;;;;;42.88;30.02;;;25.40;93.30;;;;;;4208780;28;20052;-68
2022/01/25 03:07:52;;;;;;;41.38;28.10;;;25.40;93.30;;;;;;4210328;28;20544;-68
2022/01/25 03:09:58;;;;;;;49.88;30.30;;;25.50;93.10;;;;;;4206595;28;21215;-68
2022/01/25 03:12:06;;;;;;;45.03;29.48;;;25.50;93.10;;;;;;4188595;28;20079;-68
2022/01/25 03:14:12;;;;;;;40.90;28.05;;;25.60;93.10;;;;;;4208701;28;20411;-68
2022/01/25 03:16:33;;;;;;;38.30;29.05;;;25.60;93.20;;;;;;4211007;28;20646;-69
2022/01/25 03:18:43;;;;;;;40.53;28.52;;;25.60;93.30;;;;;;4208915;28;20040;-69
2022/01/25 03:20:51;;;;;;;31.13;23.17;;;25.70;93.40;;;;;;4209170;28;20058;-69
2022/01/25 03:22:59;;;;;;;27.70;19.30;;;25.80;92.30;;;;;;4212966;28;20079;-69
2022/01/25 03:25:04;;;;;;;24.65;19.50;;;25.80;91.50;;;;;;4194585;28;20416;-69
2022/01/25 03:27:09;;;;;;;26.23;19.20;;;25.80;91.80;;;;;;4195200;28;20135;-69
2022/01/25 03:29:13;;;;;;;33.63;19.40;;;25.80;91.70;;;;;;4198222;28;20135;-69
2022/01/25 03:31:18;;;;;;;24.75;19.05;;;25.90;91.70;;;;;;4194831;28;20076;-69
2022/01/25 03:33:23;;;;;;;28.25;20.23;;;25.90;92.30;;;;;;4211548;28;21413;-68
2022/01/25 03:35:28;;;;;;;31.92;20.55;;;26.00;92.50;;;;;;4212674;28;20040;-69
2022/01/25 03:37:32;;;;;;;26.25;19.15;;;26.00;92.60;;;;;;4214003;28;20040;-69
2022/01/25 03:39:36;;;;;;;25.65;18.67;;;26.10;91.80;;;;;;4211258;28;20044;-69
2022/01/25 03:41:41;;;;;;;31.38;20.50;;;26.20;92.30;;;;;;4212414;28;20522;-69
2022/01/25 03:43:52;;;;;;;26.75;19.75;;;26.20;92.60;;;;;;4212871;28;20063;-68
2022/01/25 03:46:06;;;;;;;25.33;20.30;;;26.30;91.90;;;;;;4211534;28;20051;-68
2022/01/25 03:50:18;;;;;;;29.58;21.38;;;26.40;92.50;;;;;;4210945;28;20080;-68
2022/01/25 03:52:31;;;;;;;27.30;22.65;;;26.40;92.30;;;;;;4211168;28;20052;-67
2022/01/25 03:54:36;;;;;;;31.88;25.27;;;26.50;91.80;;;;;;4211848;28;20440;-68
2022/01/25 03:56:40;;;;;;;27.63;22.08;;;26.50;91.90;;;;;;4211672;28;20036;-67
2022/01/25 03:58:44;;;;;;;27.20;20.83;;;26.50;92.10;;;;;;4210001;28;20048;-68
2022/01/25 04:00:49;;;;;;;31.27;21.20;;;26.50;92.20;;;;;;4212535;28;20052;-68
2022/01/25 04:03:01;;;;;;;30.48;20.33;;;26.60;92.50;;;;;;4212202;28;20063;-68
2022/01/25 04:05:09;;;;;;;29.52;21.23;;;26.70;92.00;;;;;;4195629;28;20052;-66
2022/01/25 04:07:16;;;;;;;29.20;20.38;;;26.70;91.90;;;;;;4210882;28;20075;-69
2022/01/25 04:09:21;;;;;;;26.77;19.77;;;26.80;91.80;;;;;;4210908;28;20042;-68
2022/01/25 04:11:26;;;;;;;24.98;19.25;;;26.80;91.70;;;;;;4212307;28;20044;-69
2022/01/25 04:13:31;;;;;;;26.73;16.08;;;26.90;91.80;;;;;;4211751;28;20560;-69
2022/01/25 04:15:43;;;;;;;26.50;16.15;;;26.90;91.30;;;;;;4209990;28;20056;-69
2022/01/25 04:17:55;;;;;;;22.08;16.63;;;26.90;91.00;;;;;;4194695;28;20036;-68
2022/01/25 04:20:24;;;;;;;27.45;18.67;;;27.10;90.80;;;;;;4209703;28;20052;-71
2022/01/25 04:26:44;;;;;;;25.80;18.92;;;27.20;91.60;;;;;;4210763;28;20067;-70
2022/01/25 04:28:48;;;;;;;28.38;19.92;;;27.30;91.30;;;;;;4210688;28;20059;-69
2022/01/25 04:30:53;;;;;;;24.35;17.70;;;27.40;91.20;;;;;;4195752;28;20078;-70
2022/01/25 04:33:03;;;;;;;20.15;14.80;;;27.40;91.00;;;;;;4210942;28;20655;-69
2022/01/25 04:35:12;;;;;;;22.13;15.43;;;27.40;90.20;;;;;;4211011;28;20438;-67
2022/01/25 04:51:21;;;;;;;22.58;16.95;;;27.80;89.80;;;;;;4213609;28;20076;-69
2022/01/25 04:53:34;;;;;;;22.13;16.52;;;27.80;89.30;;;;;;4196812;28;20127;-68
2022/01/25 04:55:49;;;;;;;22.13;15.75;;;27.80;88.30;;;;;;4210879;28;20085;-68
2022/01/25 04:58:01;;;;;;;21.67;17.05;;;27.80;87.50;;;;;;4210940;28;20125;-67
2022/01/25 05:00:17;;;;;;;23.40;17.38;;;27.90;86.10;;;;;;4210215;28;20048;-67
2022/01/25 05:04:45;;;;;;;18.08;13.18;;;28.10;86.80;;;;;;4211875;28;20093;-67
2022/01/25 05:07:02;;;;;;;16.98;12.55;;;28.10;85.00;;;;;;4210810;28;20075;-68
2022/01/25 05:09:13;;;;;;;15.95;11.52;;;28.30;83.20;;;;;;4210111;28;20051;-68
2022/01/25 05:13:41;;;;;;;16.17;12.25;;;28.40;82.20;;;;;;4210722;28;20044;-67
2022/01/25 05:18:17;;;;;;;17.00;12.48;;;28.50;79.30;;;;;;4210191;28;20345;-69
2022/01/25 05:22:40;;;;;;;17.30;11.27;;;28.50;77.90;;;;;;4211499;28;20059;-67
2022/01/25 05:24:47;;;;;;;15.77;10.90;;;28.50;78.00;;;;;;4196248;28;20477;-70
2022/01/25 05:26:52;;;;;;;17.80;12.27;;;28.60;79.00;;;;;;4212346;28;20044;-69
2022/01/25 05:28:58;;;;;;;14.85;11.65;;;28.70;79.40;;;;;;4196318;28;20155;-71
2022/01/25 05:31:04;;;;;;;14.68;11.38;;;28.70;78.90;;;;;;4213342;28;20048;-69
2022/01/25 05:33:09;;;;;;;16.73;10.82;;;28.80;78.90;;;;;;4208978;28;20060;-69
2022/01/25 05:35:15;;;;;;;14.75;10.48;;;28.90;78.10;;;;;;4195708;28;20063;-69
2022/01/25 05:37:21;;;;;;;15.73;11.95;;;29.00;77.20;;;;;;4213551;28;20602;-69
2022/01/25 05:39:33;;;;;;;14.77;10.82;;;29.00;76.50;;;;;;4206994;28;20044;-69
2022/01/25 05:41:42;;;;;;;15.38;10.68;;;29.00;75.70;;;;;;4195729;28;20051;-69
2022/01/25 05:46:17;;;;;;;13.10;10.77;;;29.00;74.60;;;;;;4210588;28;20071;-70
2022/01/25 05:48:23;;;;;;;15.95;11.77;;;28.80;75.10;;;;;;4211385;28;20048;-68
2022/01/25 05:50:30;;;;;;;16.80;12.10;;;28.70;76.30;;;;;;4209942;28;20047;-68
2022/01/25 05:52:34;;;;;;;14.85;11.25;;;28.70;76.90;;;;;;4210418;28;20062;-69
2022/01/25 05:54:40;;;;;;;16.60;11.63;;;28.70;75.70;;;;;;4195105;28;20029;-70
2022/01/25 05:56:44;;;;;;;18.67;11.07;;;28.60;74.60;;;;;;4195855;28;20042;-69
2022/01/25 05:58:49;;;;;;;17.88;12.45;;;28.60;75.70;;;;;;4193314;28;20033;-68
2022/01/25 06:00:53;;;;;;;15.30;12.43;;;28.60;74.80;;;;;;4209553;28;20629;-69
2022/01/25 06:02:58;;;;;;;15.48;12.07;;;28.50;75.50;;;;;;4211150;28;20035;-68
2022/01/25 06:05:03;;;;;;;17.77;12.25;;;28.50;73.90;;;;;;4211048;28;20046;-71
2022/01/25 06:07:08;;;;;;;14.48;12.10;;;28.40;74.90;;;;;;4193909;28;20036;-69
2022/01/25 06:09:15;;;;;;;16.00;12.20;;;28.40;76.40;;;;;;4209358;28;20043;-69
2022/01/25 06:11:20;;;;;;;13.30;11.25;;;28.30;76.40;;;;;;4211662;28;20387;-69
2022/01/25 06:13:25;;;;;;;17.25;11.45;;;28.30;75.90;;;;;;4209098;28;20048;-71
2022/01/25 06:15:29;;;;;;;15.63;12.13;;;28.30;76.10;;;;;;4211004;28;20427;-69
2022/01/25 06:17:34;;;;;;;17.67;12.02;;;28.40;75.60;;;;;;4210677;28;20051;-70
2022/01/25 06:19:38;;;;;;;17.85;12.40;;;28.50;73.50;;;;;;4210718;28;20036;-70
2022/01/25 06:21:43;;;;;;;16.42;12.60;;;28.60;73.80;;;;;;4208842;28;20036;-71
2022/01/25 06:23:48;;;;;;;16.85;12.55;;;28.70;73.40;;;;;;4212036;28;20059;-71
2022/01/25 06:25:52;;;;;;;16.35;12.20;;;28.70;74.30;;;;;;4211255;28;20105;-69
2022/01/25 06:27:56;;;;;;;16.90;11.70;;;28.80;74.30;;;;;;4211505;28;20050;-70
2022/01/25 06:30:01;;;;;;;15.48;11.40;;;28.80;74.70;;;;;;4209943;28;20048;-71
2022/01/25 06:32:06;;;;;;;13.07;10.80;;;28.90;74.30;;;;;;4211982;28;20056;-70
2022/01/25 06:34:11;;;;;;;14.77;11.10;;;28.90;74.40;;;;;;4208697;28;20470;-71
2022/01/25 06:36:18;;;;;;;18.23;10.70;;;28.90;74.80;;;;;;4209112;28;20047;-70
2022/01/25 06:38:22;;;;;;;17.25;10.23;;;28.90;74.50;;;;;;4195193;28;20053;-70
2022/01/25 06:40:27;;;;;;;15.77;10.60;;;28.90;73.10;;;;;;4208747;28;20044;-69
2022/01/25 06:42:32;;;;;;;11.85;9.02;;;29.00;72.90;;;;;;4211276;28;20059;-70
2022/01/25 06:44:37;;;;;;;12.90;9.15;;;29.10;69.60;;;;;;4209825;28;20040;-71
2022/01/25 06:46:42;;;;;;;17.27;9.00;;;29.30;69.00;;;;;;4212612;28;20214;-69
2022/01/25 06:48:47;;;;;;;12.77;8.82;;;29.30;68.30;;;;;;4210277;28;20048;-71
2022/01/25 06:50:51;;;;;;;13.75;9.00;;;29.30;68.70;;;;;;4211763;28;20436;-70
2022/01/25 06:53:01;;;;;;;15.07;9.20;;;29.30;68.10;;;;;;4210016;28;20047;-70
2022/01/25 06:55:17;;;;;;;12.00;9.45;;;29.30;69.30;;;;;;4211603;28;20036;-70
2022/01/25 06:57:22;;;;;;;11.82;9.20;;;29.30;70.40;;;;;;4209962;28;20560;-72
2022/01/25 06:59:26;;;;;;;13.07;9.23;;;29.40;70.30;;;;;;4188523;28;20523;-71
2022/01/25 07:01:31;;;;;;;12.30;8.75;;;29.40;70.80;;;;;;4212834;28;20394;-70
2022/01/25 07:03:35;;;;;;;12.13;7.72;;;29.50;70.70;;;;;;4214034;28;20532;-70
2022/01/25 07:05:40;;;;;;;11.20;7.38;;;29.50;69.90;;;;;;4214861;28;20052;-68
2022/01/25 07:07:46;;;;;;;10.10;7.45;;;29.50;68.60;;;;;;4213990;28;20044;-66
2022/01/25 07:09:50;;;;;;;9.52;7.45;;;29.60;68.60;;;;;;4195470;28;20068;-68
2022/01/25 07:11:55;;;;;;;10.57;7.35;;;29.60;68.90;;;;;;4212188;28;20490;-65
2022/01/25 07:13:59;;;;;;;13.18;7.18;;;29.70;67.80;;;;;;4213752;28;20093;-65
2022/01/25 07:16:05;;;;;;;23.15;7.82;;;29.70;67.30;;;;;;4212925;28;20036;-65
2022/01/25 07:18:09;;;;;;;26.40;8.10;;;29.70;65.60;;;;;;4216771;28;20036;-66
2022/01/25 07:20:14;;;;;;;26.23;8.40;;;29.80;65.20;;;;;;4211796;28;20032;-66
2022/01/25 07:22:18;;;;;;;18.42;7.85;;;29.80;66.00;;;;;;4215203;28;20048;-67
2022/01/25 07:24:22;;;;;;;14.45;7.78;;;29.70;66.50;;;;;;4210860;28;20455;-68
2022/01/25 07:26:27;;;;;;;15.18;7.00;;;29.70;66.70;;;;;;4211943;28;20148;-68
2022/01/25 07:28:33;;;;;;;10.43;7.45;;;29.80;66.10;;;;;;4197320;28;20538;-69
2022/01/25 07:30:39;;;;;;;9.85;7.15;;;29.80;66.10;;;;;;4212285;28;20063;-65
2022/01/25 07:33:05;;;;;;;;;;;29.80;64.30;;;;;;4178003;28;20045;-67
2022/01/25 07:35:12;;;;;;;10.07;7.10;;;29.80;63.70;;;;;;4213750;28;20381;-67
2022/01/25 07:37:17;;;;;;;11.25;7.05;;;29.80;63.50;;;;;;4212258;28;20048;-66
2022/01/25 07:39:22;;;;;;;9.50;7.18;;;29.90;61.80;;;;;;4213095;28;20055;-67
2022/01/25 07:41:31;;;;;;;8.88;6.75;;;30.10;60.00;;;;;;4170004;28;20172;-65
2022/01/25 07:43:36;;;;;;;11.02;6.78;;;30.00;59.40;;;;;;4212340;28;20058;-65
2022/01/25 07:45:50;;;;;;;9.35;6.22;;;30.00;61.10;;;;;;4211716;28;20067;-64
2022/01/25 07:47:56;;;;;;;11.40;6.55;;;29.90;61.40;;;;;;4211947;28;20448;-66
2022/01/25 07:50:04;;;;;;;35.40;7.95;;;29.90;62.20;;;;;;4213434;28;20048;-64
2022/01/25 07:52:11;;;;;;;38.28;9.30;;;29.90;63.00;;;;;;4212293;28;20054;-64
2022/01/25 07:54:16;;;;;;;23.52;8.70;;;29.90;63.50;;;;;;4214305;28;20151;-66
2022/01/25 07:56:20;;;;;;;22.10;6.88;;;29.90;64.10;;;;;;4212134;28;20036;-66
2022/01/25 07:58:25;;;;;;;15.20;7.20;;;30.00;63.90;;;;;;4215349;28;20134;-67
2022/01/25 08:00:30;;;;;;;22.38;7.85;;;30.00;63.90;;;;;;4211911;28;20039;-66
2022/01/25 08:02:35;;;;;;;32.28;9.80;;;30.10;64.20;;;;;;4213418;28;20044;-65
2022/01/25 08:04:53;;;;;;;10.27;6.68;;;30.10;63.30;;;;;;4158645;28;20577;-68
2022/01/25 08:07:01;;;;;;;16.48;6.82;;;30.20;62.70;;;;;;4159695;28;20052;-67
2022/01/25 08:09:25;;;;;;;8.63;6.80;;;30.10;63.20;;;;;;4093666;28;20095;-68
2022/01/25 08:11:45;;;;;;;9.35;6.65;;;30.10;63.70;;;;;;4076381;29;20514;-67
2022/01/25 08:14:16;;;;;;;9.10;6.00;;;30.10;63.60;;;;;;4109612;28;20047;-66
2022/01/25 08:16:41;;;;;;;13.35;6.00;;;30.30;62.30;;;;;;4078837;29;20051;-65
2022/01/25 08:18:55;;;;;;;11.15;5.97;;;30.30;61.40;;;;;;4079235;29;20043;-65
2022/01/25 08:21:31;;;;;;;7.63;5.38;;;30.30;60.80;;;;;;4047309;29;20780;-66
2022/01/25 08:24:07;;;;;;;11.23;6.60;;;30.20;61.60;;;;;;4000996;29;20544;-67
2022/01/25 08:26:24;;;;;;;14.95;6.72;;;30.20;62.20;;;;;;4000736;29;20152;-69
2022/01/25 08:28:36;;;;;;;8.50;6.03;;;30.20;61.10;;;;;;4000233;29;20076;-66
2022/01/25 08:30:56;;;;;;;12.73;6.35;;;30.20;61.10;;;;;;3994591;29;20057;-69
2022/01/25 08:33:14;;;;;;;11.10;6.32;;;30.10;61.10;;;;;;3955352;29;20067;-65
2022/01/25 08:35:33;;;;;;;15.75;6.30;;;30.10;60.80;;;;;;3954473;29;20174;-66
2022/01/25 08:37:54;;;;;;;11.70;6.38;;;30.20;60.30;;;;;;3955962;29;20474;-66
2022/01/25 08:40:13;;;;;;;12.18;6.22;;;30.20;60.90;;;;;;3955362;29;20059;-67
2022/01/25 08:42:20;;;;;;;13.10;6.35;;;30.20;60.90;;;;;;3968250;29;20054;-66
2022/01/25 08:44:41;;;;;;;14.07;6.38;;;30.20;60.90;;;;;;3986275;29;20149;-65
2022/01/25 08:46:56;;;;;;;8.60;5.68;;;30.30;62.00;;;;;;3987305;29;20138;-64
2022/01/25 08:49:04;;;;;;;9.25;6.10;;;30.30;61.00;;;;;;3985284;29;20076;-66
2022/01/25 08:51:13;;;;;;;11.18;6.53;;;30.20;61.30;;;;;;3984848;29;20054;-66
2022/01/25 08:53:35;;;;;;;11.75;6.55;;;30.30;61.10;;;;;;3987916;29;20042;-63
2022/01/25 08:55:46;;;;;;;18.42;14.77;;;30.30;59.80;;;;;;4052463;29;20052;-62
2022/01/25 08:58:07;;;;;;;12.32;10.07;;;30.30;60.60;;;;;;4046705;29;20140;-60
2022/01/25 09:00:16;;;;;;;14.05;9.98;;;30.30;59.80;;;;;;4093298;29;20054;-66
2022/01/25 09:02:21;;;;;;;13.68;8.75;;;30.30;60.80;;;;;;4078012;29;20098;-65
2022/01/25 09:04:26;;;;;;;10.20;7.28;;;30.30;60.70;;;;;;4093937;29;20051;-66
2022/01/25 09:06:31;;;;;;;9.55;6.00;;;30.30;60.70;;;;;;4093643;29;20047;-64
2022/01/25 09:08:36;;;;;;;15.35;9.38;;;30.30;58.20;;;;;;4093686;29;20082;-66
2022/01/25 09:10:42;;;;;;;12.25;6.88;;;30.50;57.20;;;;;;4129508;28;20123;-66
2022/01/25 09:12:47;;;;;;;13.70;7.35;;;30.50;58.40;;;;;;4158856;28;20065;-64
2022/01/25 09:14:51;;;;;;;16.08;11.85;;;30.30;59.30;;;;;;4175566;28;20048;-64
2022/01/25 09:16:56;;;;;;;10.82;7.85;;;30.20;59.10;;;;;;4174474;28;20052;-64
2022/01/25 09:19:01;;;;;;;15.55;8.57;;;30.20;58.30;;;;;;4175787;28;20067;-63
2022/01/25 09:21:05;;;;;;;16.92;8.73;;;30.20;58.90;;;;;;4158273;28;20045;-64
2022/01/25 09:23:10;;;;;;;9.15;6.47;;;30.30;58.40;;;;;;4175449;28;20083;-64
2022/01/25 09:25:16;;;;;;;8.75;6.35;;;30.40;57.30;;;;;;4174919;28;20041;-64
2022/01/25 09:27:24;;;;;;;10.95;6.90;;;30.30;58.70;;;;;;4176592;28;20036;-65
2022/01/25 09:29:30;;;;;;;10.65;6.30;;;30.10;59.20;;;;;;4174703;28;20056;-65
2022/01/25 09:31:35;;;;;;;12.65;7.03;;;30.10;60.00;;;;;;4174380;28;20041;-65
2022/01/25 09:33:40;;;;;;;18.63;6.63;;;30.00;59.90;;;;;;4173800;28;20071;-64
2022/01/25 09:35:44;;;;;;;21.88;6.72;;;30.00;60.30;;;;;;4194296;28;20652;-64
2022/01/25 09:37:50;;;;;;;15.40;7.18;;;30.00;60.80;;;;;;4210573;28;20052;-64
2022/01/25 09:39:55;;;;;;;14.82;7.05;;;30.00;61.60;;;;;;4211402;28;20047;-64
2022/01/25 09:42:00;;;;;;;11.07;7.80;;;30.00;62.60;;;;;;4213765;28;20098;-64
2022/01/25 09:44:08;;;;;;;28.40;13.00;;;30.00;63.10;;;;;;4209251;28;20587;-65
2022/01/25 09:46:13;;;;;;;24.58;11.05;;;30.00;63.30;;;;;;4211116;28;20059;-64
2022/01/25 09:48:18;;;;;;;25.38;9.93;;;30.00;63.50;;;;;;4209307;28;20450;-66
2022/01/25 09:50:23;;;;;;;26.02;9.50;;;29.90;63.00;;;;;;4213140;28;20071;-65
2022/01/25 09:52:27;;;;;;;17.10;7.63;;;30.00;63.40;;;;;;4209435;28;20055;-66
2022/01/25 09:54:33;;;;;;;23.33;7.95;;;29.90;63.00;;;;;;4209681;28;20047;-67
2022/01/25 09:56:37;;;;;;;14.80;7.30;;;29.90;63.50;;;;;;4209299;28;20135;-67
2022/01/25 09:58:44;;;;;;;23.45;8.00;;;29.90;63.40;;;;;;4194628;28;20063;-72
2022/01/25 10:00:48;;;;;;;12.95;6.60;;;29.80;63.70;;;;;;4192919;28;20051;-67
2022/01/25 10:05:26;;;;;;;15.35;7.15;;;29.80;63.70;;;;;;4210083;28;20636;-67
2022/01/25 10:07:30;;;;;;;13.23;6.97;;;29.80;64.10;;;;;;4209454;28;20056;-66
2022/01/25 10:09:40;;;;;;;14.10;7.20;;;29.80;64.30;;;;;;4209970;28;20444;-66
2022/01/25 10:11:45;;;;;;;18.40;7.25;;;29.80;64.80;;;;;;4209287;28;20044;-70
2022/01/25 10:13:55;;;;;;;255.90;24.92;;;29.70;64.80;;;;;;4210203;28;20039;-68
2022/01/25 10:16:04;;;;;;;271.50;23.65;;;29.70;65.60;;;;;;4208255;28;20425;-66
2022/01/25 10:18:10;;;;;;;121.03;15.25;;;29.70;65.90;;;;;;4207557;28;20044;-67
2022/01/25 10:20:40;;;;;;;62.30;12.00;;;29.60;66.20;;;;;;4191950;28;20040;-68
2022/01/25 10:22:47;;;;;;;65.88;12.93;;;29.60;66.10;;;;;;4208670;28;20044;-68
2022/01/25 10:24:53;;;;;;;30.15;11.38;;;29.60;67.00;;;;;;4209242;28;20785;-67
2022/01/25 10:27:04;;;;;;;29.77;13.00;;;29.50;67.00;;;;;;4210404;28;20082;-66
2022/01/25 10:29:10;;;;;;;39.38;17.15;;;29.50;67.20;;;;;;4208715;28;20565;-67
2022/01/25 10:31:14;;;;;;;40.05;19.00;;;29.50;67.50;;;;;;4209847;28;20056;-68
2022/01/25 10:33:34;;;;;;;44.53;20.88;;;29.40;68.00;;;;;;4212587;28;20055;-68
2022/01/25 10:35:38;;;;;;;41.40;19.98;;;29.40;67.80;;;;;;4213389;28;20040;-68
2022/01/25 10:37:42;;;;;;;37.78;18.88;;;29.30;68.20;;;;;;4213167;28;20064;-68
2022/01/25 10:39:48;;;;;;;33.60;19.25;;;29.30;68.10;;;;;;4214049;28;20043;-68
2022/01/25 10:42:02;;;;;;;52.92;17.42;;;29.30;68.50;;;;;;4213389;28;20040;-68
2022/01/25 10:44:08;;;;;;;71.15;18.95;;;29.20;69.00;;;;;;4211429;28;20048;-68
2022/01/25 10:46:24;;;;;;;50.63;17.52;;;29.10;69.40;;;;;;4180776;28;20187;-68
2022/01/25 10:48:29;;;;;;;44.88;14.88;;;29.10;70.00;;;;;;4212263;28;20047;-68
2022/01/25 10:50:39;;;;;;;40.85;15.80;;;29.00;71.20;;;;;;4213281;28;20044;-68
2022/01/25 10:52:43;;;;;;;46.38;15.45;;;29.00;70.70;;;;;;4212408;28;20067;-69
2022/01/25 10:54:48;;;;;;;70.80;15.15;;;28.90;71.60;;;;;;4212337;28;20047;-68
2022/01/25 10:56:55;;;;;;;23.65;12.23;;;28.90;73.60;;;;;;4212544;28;20378;-65
2022/01/25 10:59:04;;;;;;;22.27;12.25;;;28.80;72.60;;;;;;4212917;28;20067;-68
2022/01/25 11:01:10;;;;;;;23.92;11.60;;;28.70;73.20;;;;;;4213013;28;20056;-68
2022/01/25 11:03:28;;;;;;;30.67;12.27;;;28.70;72.50;;;;;;4214291;28;20052;-67
2022/01/25 11:05:39;;;;;;;41.50;16.30;;;28.60;73.00;;;;;;4211945;28;20539;-67
2022/01/25 11:07:44;;;;;;;33.08;13.80;;;28.60;72.90;;;;;;4211322;28;20058;-67
2022/01/25 11:09:51;;;;;;;28.33;13.73;;;28.60;73.30;;;;;;4198078;28;20044;-67
2022/01/25 11:11:56;;;;;;;29.60;15.82;;;28.50;73.10;;;;;;4213976;28;20044;-65
2022/01/25 11:14:50;;;;;;;30.85;17.38;;;28.40;72.60;;;;;;4211732;28;20075;-67
2022/01/25 11:16:26;;;;;;;28.13;17.33;;;28.30;71.80;;;;;;4212362;28;20032;-68
2022/01/25 11:18:51;;;;;;;27.58;17.42;;;28.20;72.50;;;;;;4213040;28;20040;-67
2022/01/25 11:20:57;;;;;;;28.35;16.75;;;28.20;72.70;;;;;;4210860;28;20032;-67
2022/01/25 11:23:02;;;;;;;36.60;17.50;;;28.10;72.70;;;;;;4211328;28;20040;-67
2022/01/25 11:25:10;;;;;;;29.50;17.63;;;28.10;73.00;;;;;;4212553;28;20073;-66
2022/01/25 11:27:15;;;;;;;31.98;17.42;;;28.10;73.20;;;;;;4214600;28;20127;-65
2022/01/25 11:29:20;;;;;;;29.88;17.25;;;28.10;73.50;;;;;;4211964;28;20494;-66
2022/01/25 11:31:26;;;;;;;31.10;17.48;;;28.10;74.00;;;;;;4214996;28;20050;-66
2022/01/25 11:33:31;;;;;;;33.10;17.05;;;28.00;74.30;;;;;;4214715;28;20669;-66
2022/01/25 11:35:36;;;;;;;37.03;18.65;;;28.00;74.60;;;;;;4210418;28;20051;-66
2022/01/25 11:37:43;;;;;;;33.17;17.88;;;28.00;74.90;;;;;;4212301;28;20046;-65
2022/01/25 11:39:50;;;;;;;38.63;19.58;;;28.00;74.90;;;;;;4214237;28;20631;-66
2022/01/25 11:42:19;;;;;;;34.47;20.23;;;27.90;75.00;;;;;;4211564;28;20071;-66
2022/01/25 11:44:26;;;;;;;35.00;21.33;;;27.90;75.60;;;;;;4211874;28;20036;-66
2022/01/25 11:46:31;;;;;;;34.97;22.45;;;27.80;75.90;;;;;;4196867;28;20043;-66
2022/01/25 11:48:38;;;;;;;34.20;22.73;;;27.80;75.90;;;;;;4211838;28;20479;-67
2022/01/25 11:50:43;;;;;;;40.47;23.05;;;27.70;76.40;;;;;;4214140;28;20094;-66
2022/01/25 11:52:52;;;;;;;39.03;23.52;;;27.70;76.50;;;;;;4214179;28;20060;-66
2022/01/25 11:55:19;;;;;;;50.00;25.35;;;27.60;76.60;;;;;;4214501;28;20135;-66
2022/01/25 11:57:26;;;;;;;39.85;23.60;;;27.60;77.20;;;;;;4210999;28;20536;-67
2022/01/25 11:59:35;;;;;;;51.42;27.17;;;27.60;77.30;;;;;;4210975;28;20094;-66
2022/01/25 12:01:39;;;;;;;49.90;26.65;;;27.60;77.60;;;;;;4210925;28;20131;-65
2022/01/25 12:03:50;;;;;;;49.83;29.67;;;27.50;77.90;;;;;;4211016;28;20092;-66
2022/01/25 12:06:20;;;;;;;51.78;31.17;;;27.50;78.60;;;;;;4193727;28;20529;-66
2022/01/25 12:08:38;;;;;;;58.75;32.75;;;27.50;78.80;;;;;;4213464;28;20039;-66
2022/01/25 12:10:45;;;;;;;70.03;36.63;;;27.50;78.90;;;;;;4211617;28;20248;-67
2022/01/25 12:13:13;;;;;;;69.18;37.90;;;27.50;78.90;;;;;;4216582;28;20139;-66
2022/01/25 12:15:22;;;;;;;68.03;34.33;;;27.40;79.00;;;;;;4211475;28;20579;-66
2022/01/25 12:17:27;;;;;;;56.63;31.27;;;27.40;79.50;;;;;;4212560;28;20051;-66
2022/01/25 12:19:58;;;;;;;65.00;31.73;;;27.30;79.80;;;;;;4211837;28;20082;-66
2022/01/25 12:22:15;;;;;;;60.20;30.55;;;27.30;79.90;;;;;;4212070;28;20155;-66
2022/01/25 12:24:33;;;;;;;61.25;29.50;;;27.30;80.00;;;;;;4210950;28;20143;-66